createdAt,value
2023-01-18T00:02:05.078Z,38.60
2023-01-18T00:04:32.162Z,39.60
2023-01-18T00:07:01.153Z,38.40
2023-01-18T00:09:28.106Z,39.60
2023-01-18T00:11:55.454Z,38.80
2023-01-18T00:14:23.147Z,39.30
2023-01-18T00:16:50.174Z,38.50
2023-01-18T00:19:17.827Z,41.80
2023-01-18T00:21:44.924Z,39.70
2023-01-18T00:24:16.077Z,40.10
2023-01-18T00:26:44.528Z,40.20
2023-01-18T00:29:11.537Z,40.30
2023-01-18T00:31:39.425Z,41.20
2023-01-18T00:34:06.391Z,39.90
2023-01-18T00:36:33.715Z,38.30
2023-01-18T00:39:01.703Z,37.90
2023-01-18T00:41:28.997Z,37.20
2023-01-18T00:43:56.519Z,37.20
2023-01-18T00:46:25.391Z,34.80
2023-01-18T00:48:53.750Z,35.40
2023-01-18T00:51:23.157Z,36.00
2023-01-18T00:53:50.671Z,35.80
2023-01-18T00:56:19.971Z,36.10
2023-01-18T00:58:47.301Z,36.40
2023-01-18T01:01:15.140Z,37.70
2023-01-18T01:04:00.123Z,38.10
2023-01-18T01:06:46.019Z,40.70
2023-01-18T01:09:15.116Z,36.80
2023-01-18T01:12:03.468Z,35.90
2023-01-18T01:14:48.550Z,36.30
2023-01-18T01:17:33.279Z,36.50
2023-01-18T01:20:18.276Z,36.10
2023-01-18T01:23:03.025Z,34.40
2023-01-18T01:25:47.686Z,35.30
2023-01-18T01:28:15.828Z,34.10
2023-01-18T01:30:44.725Z,33.20
2023-01-18T01:33:11.908Z,31.70
2023-01-18T01:35:39.408Z,33.50
2023-01-18T01:38:06.731Z,32.90
2023-01-18T01:40:33.879Z,32.50
2023-01-18T01:43:00.987Z,31.50
2023-01-18T01:45:31.203Z,31.80
2023-01-18T01:48:00.122Z,32.80
2023-01-18T01:50:30.946Z,33.50
2023-01-18T01:52:59.428Z,32.60
2023-01-18T01:55:31.927Z,33.70
2023-01-18T01:58:02.547Z,34.60
2023-01-18T02:00:30.711Z,33.10
2023-01-18T02:03:01.610Z,33.00
2023-01-18T02:05:30.860Z,32.70
2023-01-18T02:08:01.766Z,33.10
2023-01-18T02:10:29.437Z,34.50
2023-01-18T02:12:58.230Z,32.80
2023-01-18T02:15:32.497Z,34.30
2023-01-18T02:18:17.422Z,33.80
2023-01-18T02:21:19.813Z,33.70
2023-01-18T02:24:29.138Z,32.50
2023-01-18T02:27:12.684Z,32.80
2023-01-18T02:30:03.915Z,34.80
2023-01-18T02:33:43.352Z,32.90
2023-01-18T02:36:12.346Z,32.40
2023-01-18T02:38:44.529Z,33.60
2023-01-18T02:41:19.747Z,34.20
2023-01-18T02:44:06.722Z,33.60
2023-01-18T02:46:39.006Z,32.50
2023-01-18T02:49:09.797Z,32.80
2023-01-18T02:51:37.598Z,33.30
2023-01-18T02:54:08.076Z,32.10
2023-01-18T02:56:40.028Z,33.80
2023-01-18T02:59:13.647Z,31.80
2023-01-18T03:01:45.616Z,31.00
2023-01-18T03:04:17.835Z,29.70
2023-01-18T03:06:49.183Z,31.20
2023-01-18T03:09:18.814Z,30.10
2023-01-18T03:11:55.190Z,29.10
2023-01-18T03:14:32.358Z,29.10
2023-01-18T03:17:07.217Z,30.10
2023-01-18T03:20:01.713Z,28.10
2023-01-18T03:22:49.843Z,29.40
2023-01-18T03:25:20.900Z,27.00
2023-01-18T03:28:09.622Z,25.60
2023-01-18T03:30:55.820Z,27.20
2023-01-18T03:33:43.637Z,26.80
2023-01-18T03:36:17.445Z,26.20
2023-01-18T03:38:46.706Z,25.70
2023-01-18T03:41:15.781Z,25.90
2023-01-18T03:43:46.105Z,26.40
2023-01-18T03:46:17.286Z,26.60
2023-01-18T03:48:44.327Z,25.80
2023-01-18T03:51:20.892Z,25.20
2023-01-18T03:53:57.106Z,24.40
2023-01-18T03:56:27.548Z,25.40
2023-01-18T03:58:58.779Z,24.60
2023-01-18T04:01:27.145Z,25.40
2023-01-18T04:03:54.800Z,24.30
2023-01-18T04:06:23.325Z,24.40
2023-01-18T04:08:50.634Z,24.50
2023-01-18T04:11:17.683Z,24.00
2023-01-18T04:13:44.750Z,24.60
2023-01-18T04:16:11.927Z,23.90
2023-01-18T04:18:39.298Z,25.00
2023-01-18T04:21:06.709Z,24.50
2023-01-18T04:23:33.732Z,24.80
2023-01-18T04:26:00.777Z,25.10
2023-01-18T04:28:28.066Z,26.10
2023-01-18T04:30:56.761Z,25.70
2023-01-18T04:33:27.035Z,26.60
2023-01-18T04:35:55.349Z,26.40
2023-01-18T04:38:23.018Z,25.50
2023-01-18T04:40:50.379Z,25.10
2023-01-18T04:43:17.360Z,26.70
2023-01-18T04:45:46.342Z,25.50
2023-01-18T04:48:14.081Z,26.60
2023-01-18T04:50:46.587Z,27.00
2023-01-18T04:53:13.655Z,27.30
2023-01-18T04:55:40.989Z,25.90
2023-01-18T04:58:07.942Z,25.90
2023-01-18T05:00:35.112Z,25.90
2023-01-18T05:03:02.667Z,26.90
2023-01-18T05:05:29.633Z,26.30
2023-01-18T05:07:56.860Z,25.40
2023-01-18T05:10:24.128Z,26.20
2023-01-18T05:12:51.138Z,24.60
2023-01-18T05:15:19.325Z,26.10
2023-01-18T05:17:46.482Z,25.60
2023-01-18T05:20:16.218Z,25.60
2023-01-18T05:22:43.270Z,26.70
2023-01-18T05:25:12.602Z,27.40
2023-01-18T05:27:39.585Z,26.80
2023-01-18T05:30:08.310Z,26.70
2023-01-18T05:32:37.869Z,27.20
2023-01-18T05:35:04.991Z,26.30
2023-01-18T05:37:32.200Z,26.90
2023-01-18T05:40:00.130Z,27.20
2023-01-18T05:42:27.171Z,27.30
2023-01-18T05:44:54.466Z,25.80
2023-01-18T05:47:21.850Z,26.40
2023-01-18T05:49:49.645Z,26.70
2023-01-18T05:52:17.215Z,24.90
2023-01-18T05:54:44.232Z,24.00
2023-01-18T05:57:11.346Z,24.40
2023-01-18T05:59:38.412Z,23.50
2023-01-18T06:02:06.680Z,25.10
2023-01-18T06:04:33.836Z,24.80
2023-01-18T06:07:01.045Z,23.40
2023-01-18T06:09:30.169Z,22.50
2023-01-18T06:11:57.319Z,22.20
2023-01-18T06:14:24.475Z,20.50
2023-01-18T06:16:51.659Z,20.90
2023-01-18T06:19:19.004Z,20.90
2023-01-18T06:21:47.179Z,19.00
2023-01-18T06:24:14.851Z,19.00
2023-01-18T06:26:41.821Z,18.00
2023-01-18T06:29:09.466Z,17.00
2023-01-18T06:31:36.557Z,18.80
2023-01-18T06:34:09.372Z,18.30
2023-01-18T06:36:36.771Z,18.50
2023-01-18T06:39:03.833Z,19.00
2023-01-18T06:41:30.944Z,18.50
2023-01-18T06:43:58.210Z,19.30
2023-01-18T06:46:25.321Z,17.30
2023-01-18T06:48:52.560Z,16.80
2023-01-18T06:51:20.591Z,17.00
2023-01-18T06:53:47.641Z,15.30
2023-01-18T06:56:14.972Z,15.30
2023-01-18T06:58:42.020Z,15.10
2023-01-18T07:01:09.971Z,13.90
2023-01-18T07:03:38.906Z,13.90
2023-01-18T07:06:07.756Z,14.30
2023-01-18T07:08:35.614Z,15.00
2023-01-18T07:11:08.243Z,15.40
2023-01-18T07:13:35.375Z,14.50
2023-01-18T07:16:03.300Z,14.00
2023-01-18T07:18:31.434Z,14.10
2023-01-18T07:21:03.412Z,13.80
2023-01-18T07:23:31.795Z,13.60
2023-01-18T07:26:03.317Z,13.90
2023-01-18T07:28:30.887Z,13.70
2023-01-18T07:30:58.188Z,13.40
2023-01-18T07:33:25.245Z,12.60
2023-01-18T07:35:55.156Z,12.50
2023-01-18T07:38:22.430Z,12.30
2023-01-18T07:40:49.850Z,12.60
2023-01-18T07:43:18.128Z,13.00
2023-01-18T07:45:46.962Z,11.30
2023-01-18T07:48:14.142Z,11.90
2023-01-18T07:50:41.315Z,11.80
2023-01-18T07:53:09.528Z,12.40
2023-01-18T07:55:38.923Z,12.40
2023-01-18T07:58:06.095Z,12.10
2023-01-18T08:00:34.890Z,12.00
2023-01-18T08:03:02.344Z,11.50
2023-01-18T08:05:30.013Z,10.70
2023-01-18T08:07:58.051Z,11.10
2023-01-18T08:10:26.686Z,10.90
2023-01-18T08:12:54.139Z,10.30
2023-01-18T08:15:21.298Z,10.60
2023-01-18T08:17:51.220Z,10.10
2023-01-18T08:20:20.994Z,9.20
2023-01-18T08:22:55.496Z,9.90
2023-01-18T08:25:22.762Z,12.40
2023-01-18T08:27:50.001Z,9.70
2023-01-18T08:30:20.055Z,9.60
2023-01-18T08:32:47.332Z,8.90
2023-01-18T08:35:14.697Z,9.40
2023-01-18T08:37:41.798Z,8.10
2023-01-18T08:40:11.189Z,7.80
2023-01-18T08:42:38.330Z,7.90
2023-01-18T08:45:05.743Z,8.40
2023-01-18T08:47:33.241Z,8.50
2023-01-18T08:50:00.205Z,8.20
2023-01-18T08:52:28.159Z,8.70
2023-01-18T08:54:55.763Z,7.50
2023-01-18T08:57:23.382Z,8.70
2023-01-18T08:59:51.287Z,9.70
2023-01-18T09:02:18.601Z,8.80
2023-01-18T09:04:48.829Z,11.20
2023-01-18T09:07:15.997Z,9.00
2023-01-18T09:09:43.533Z,8.50
2023-01-18T09:12:11.613Z,8.50
2023-01-18T09:14:38.764Z,8.50
2023-01-18T09:17:06.014Z,8.50
2023-01-18T09:19:33.269Z,7.80
2023-01-18T09:22:00.356Z,9.10
2023-01-18T09:24:27.881Z,8.20
2023-01-18T09:26:55.444Z,8.60
2023-01-18T09:29:22.751Z,8.40
2023-01-18T09:31:50.393Z,7.60
2023-01-18T09:34:19.983Z,8.70
2023-01-18T09:36:47.740Z,7.70
2023-01-18T09:39:15.075Z,8.00
2023-01-18T09:41:44.477Z,7.80
2023-01-18T09:44:23.206Z,8.50
2023-01-18T09:46:54.509Z,8.20
2023-01-18T09:49:28.474Z,8.00
2023-01-18T09:52:05.589Z,8.50
2023-01-18T09:54:43.341Z,7.80
2023-01-18T09:57:18.370Z,7.10
2023-01-18T09:59:55.663Z,6.90
2023-01-18T10:02:27.244Z,7.20
2023-01-18T10:05:00.653Z,7.00
2023-01-18T10:07:31.765Z,7.10
2023-01-18T10:10:02.486Z,7.40
2023-01-18T10:12:39.114Z,6.40
2023-01-18T10:15:17.510Z,6.60
2023-01-18T10:17:46.314Z,7.30
2023-01-18T10:20:22.022Z,7.10
2023-01-18T10:22:54.648Z,7.40
2023-01-18T10:25:32.080Z,7.10
2023-01-18T10:28:17.394Z,7.70
2023-01-18T10:30:57.466Z,7.30
2023-01-18T10:33:27.226Z,7.10
2023-01-18T10:35:58.497Z,6.90
2023-01-18T10:38:29.414Z,7.10
2023-01-18T10:41:00.798Z,7.50
2023-01-18T10:43:30.166Z,8.00
2023-01-18T10:45:57.394Z,8.00
2023-01-18T10:48:31.146Z,8.20
2023-01-18T10:51:00.350Z,7.90
2023-01-18T10:53:33.882Z,7.40
2023-01-18T10:56:05.169Z,7.40
2023-01-18T10:58:36.248Z,7.50
2023-01-18T11:01:04.770Z,7.30
2023-01-18T11:03:38.389Z,7.50
2023-01-18T11:06:08.379Z,8.20
2023-01-18T11:08:37.013Z,7.90
2023-01-18T11:11:07.537Z,7.90
2023-01-18T11:13:42.678Z,7.70
2023-01-18T11:16:14.081Z,7.20
2023-01-18T11:18:55.711Z,7.70
2023-01-18T11:21:23.928Z,7.30
2023-01-18T11:23:52.614Z,7.60
2023-01-18T11:26:22.738Z,7.40
2023-01-18T11:28:57.040Z,7.20
2023-01-18T11:31:27.642Z,7.70
2023-01-18T11:33:57.809Z,7.00
2023-01-18T11:36:38.798Z,7.60
2023-01-18T11:39:20.532Z,7.20
2023-01-18T11:41:48.909Z,6.90
2023-01-18T11:44:24.003Z,7.60
2023-01-18T11:46:55.029Z,7.30
2023-01-18T11:49:35.983Z,6.60
2023-01-18T11:52:06.404Z,6.90
2023-01-18T11:54:40.847Z,6.90
2023-01-18T11:57:10.413Z,7.30
2023-01-18T11:59:42.687Z,7.00
2023-01-18T12:02:40.497Z,6.70
2023-01-18T12:05:30.985Z,6.90
2023-01-18T12:08:13.100Z,6.50
2023-01-18T12:10:51.732Z,7.10
2023-01-18T12:13:34.124Z,7.30
2023-01-18T12:16:12.517Z,5.70
2023-01-18T12:19:18.190Z,6.20
2023-01-18T12:22:02.087Z,5.90
2023-01-18T12:24:46.071Z,5.70
2023-01-18T12:27:24.477Z,6.00
2023-01-18T12:30:03.743Z,5.90
2023-01-18T12:32:45.126Z,5.60
2023-01-18T12:35:28.888Z,6.00
2023-01-18T12:38:07.149Z,6.10
2023-01-18T12:40:46.340Z,5.80
2023-01-18T12:43:26.323Z,5.70
2023-01-18T12:46:00.497Z,6.10
2023-01-18T12:48:31.977Z,5.70
2023-01-18T12:51:00.532Z,6.00
2023-01-18T12:53:39.535Z,5.80
2023-01-18T12:56:15.054Z,5.80
2023-01-18T12:58:44.274Z,6.20
2023-01-18T13:01:15.623Z,5.40
2023-01-18T13:03:46.565Z,6.10
2023-01-18T13:06:14.332Z,6.40
2023-01-18T13:08:45.660Z,6.20
2023-01-18T13:11:18.362Z,5.90
2023-01-18T13:13:48.568Z,5.40
2023-01-18T13:16:29.526Z,7.40
2023-01-18T13:19:01.148Z,5.60
2023-01-18T13:21:43.355Z,5.90
2023-01-18T13:24:20.351Z,5.50
2023-01-18T13:26:47.941Z,5.30
2023-01-18T13:29:24.144Z,5.50
2023-01-18T13:31:52.053Z,6.50
2023-01-18T13:34:29.776Z,8.20
2023-01-18T13:37:13.275Z,5.60
2023-01-18T13:39:48.282Z,7.20
2023-01-18T13:42:35.645Z,6.00
2023-01-18T13:45:20.913Z,6.80
2023-01-18T13:47:54.847Z,7.60
2023-01-18T13:50:52.863Z,8.90
2023-01-18T13:53:28.986Z,6.90
2023-01-18T13:56:33.403Z,6.40
2023-01-18T13:59:18.815Z,5.90
2023-01-18T14:01:49.986Z,7.30
2023-01-18T14:04:30.172Z,8.90
2023-01-18T14:06:59.819Z,9.00
2023-01-18T14:09:42.756Z,9.00
2023-01-18T14:12:11.800Z,8.70
2023-01-18T14:14:56.423Z,8.20
2023-01-18T14:17:25.318Z,7.30
2023-01-18T14:20:38.552Z,7.00
2023-01-18T14:23:24.995Z,6.80
2023-01-18T14:26:00.115Z,7.10
2023-01-18T14:28:36.315Z,6.50
2023-01-18T14:31:06.099Z,6.40
2023-01-18T14:33:37.215Z,6.70
2023-01-18T14:36:08.654Z,7.50
2023-01-18T14:38:36.673Z,7.70
2023-01-18T14:41:10.082Z,7.70
2023-01-18T14:43:42.349Z,8.00
2023-01-18T14:46:12.790Z,8.40
2023-01-18T14:48:48.315Z,8.00
2023-01-18T14:51:20.304Z,6.80
2023-01-18T14:53:52.943Z,7.30
2023-01-18T14:56:23.324Z,6.70
2023-01-18T14:58:56.463Z,7.30
2023-01-18T15:01:32.635Z,8.60
2023-01-18T15:04:02.062Z,8.70
2023-01-18T15:06:41.395Z,9.30
2023-01-18T15:09:10.909Z,8.30
2023-01-18T15:11:39.931Z,8.80
2023-01-18T15:14:13.332Z,8.30
2023-01-18T15:16:41.808Z,8.90
2023-01-18T15:19:17.078Z,9.30
2023-01-18T15:21:46.098Z,9.70
2023-01-18T15:24:18.851Z,10.50
2023-01-18T15:26:51.436Z,10.40
2023-01-18T15:29:20.995Z,10.40
2023-01-18T15:31:51.882Z,10.50
2023-01-18T15:34:22.689Z,10.40
2023-01-18T15:36:50.220Z,9.70
2023-01-18T15:39:17.331Z,10.50
2023-01-18T15:41:45.992Z,10.40
2023-01-18T15:44:32.413Z,10.90
2023-01-18T15:46:59.667Z,11.80
2023-01-18T15:49:26.976Z,11.10
2023-01-18T15:51:56.578Z,10.70
2023-01-18T15:54:26.853Z,12.20
2023-01-18T15:56:55.387Z,12.70
2023-01-18T15:59:25.203Z,12.60
2023-01-18T16:04:46.021Z,12.40
2023-01-18T16:07:38.264Z,12.00
2023-01-18T16:10:28.407Z,11.90
2023-01-18T16:12:57.957Z,14.20
2023-01-18T16:15:31.049Z,14.30
2023-01-18T16:18:04.508Z,14.30
2023-01-18T16:20:33.895Z,15.20
2023-01-18T16:23:09.071Z,15.60
2023-01-18T16:25:37.405Z,15.70
2023-01-18T16:28:05.842Z,15.00
2023-01-18T16:30:35.810Z,15.70
2023-01-18T16:33:11.442Z,16.40
2023-01-18T16:35:40.038Z,17.30
2023-01-18T16:38:10.828Z,17.40
2023-01-18T16:40:40.874Z,18.30
2023-01-18T16:43:20.205Z,18.90
2023-01-18T16:45:48.907Z,20.50
2023-01-18T16:48:18.462Z,21.30
2023-01-18T16:50:46.136Z,20.90
2023-01-18T16:53:14.536Z,22.20
2023-01-18T16:55:44.167Z,22.10
2023-01-18T16:58:13.374Z,23.10
2023-01-18T17:00:49.749Z,22.10
2023-01-18T17:03:16.814Z,23.80
2023-01-18T17:05:43.862Z,23.10
2023-01-18T17:08:13.660Z,24.40
2023-01-18T17:10:43.215Z,23.30
2023-01-18T17:13:10.897Z,23.70
2023-01-18T17:15:41.951Z,25.00
2023-01-18T17:18:11.716Z,23.30
2023-01-18T17:20:38.919Z,23.60
2023-01-18T17:23:06.374Z,22.90
2023-01-18T17:25:33.432Z,25.10
2023-01-18T17:28:01.077Z,24.50
2023-01-18T17:30:28.935Z,24.80
2023-01-18T17:32:57.436Z,24.90
2023-01-18T17:35:28.023Z,25.30
2023-01-18T17:38:04.611Z,24.60
2023-01-18T17:40:39.993Z,24.90
2023-01-18T17:43:09.129Z,25.00
2023-01-18T17:45:36.588Z,24.70
2023-01-18T17:48:04.121Z,24.80
2023-01-18T17:50:31.203Z,25.90
2023-01-18T17:52:58.603Z,25.20
2023-01-18T17:55:34.275Z,26.00
2023-01-18T17:58:01.798Z,26.30
2023-01-18T18:00:29.053Z,26.10
2023-01-18T18:02:57.972Z,26.10
2023-01-18T18:05:26.626Z,27.40
2023-01-18T18:07:54.050Z,27.30
2023-01-18T18:10:21.438Z,27.70
2023-01-18T18:12:48.740Z,28.00
2023-01-18T18:15:15.954Z,25.90
2023-01-18T18:17:42.993Z,28.00
2023-01-18T18:20:12.565Z,27.00
2023-01-18T18:22:39.865Z,26.10
2023-01-18T18:25:08.523Z,27.00
2023-01-18T18:27:45.368Z,27.60
2023-01-18T18:30:14.868Z,27.90
2023-01-18T18:32:42.157Z,28.20
2023-01-18T18:35:26.753Z,29.60
2023-01-18T18:37:55.735Z,27.40
2023-01-18T18:40:22.928Z,30.60
2023-01-18T18:43:01.156Z,30.10
2023-01-18T18:45:29.337Z,29.00
2023-01-18T18:47:56.882Z,29.40
2023-01-18T18:50:23.977Z,29.70
2023-01-18T18:52:51.423Z,27.50
2023-01-18T18:55:19.179Z,29.10
2023-01-18T18:57:46.333Z,30.50
2023-01-18T19:00:16.549Z,29.90
2023-01-18T19:02:43.867Z,31.00
2023-01-18T19:05:12.214Z,31.90
2023-01-18T19:07:42.535Z,30.20
2023-01-18T19:10:11.671Z,32.00
2023-01-18T19:12:38.856Z,32.50
2023-01-18T19:15:06.734Z,31.60
2023-01-18T19:17:33.906Z,33.70
2023-01-18T19:20:00.986Z,33.60
2023-01-18T19:22:28.254Z,34.60
2023-01-18T19:24:55.602Z,36.10
2023-01-18T19:27:24.700Z,34.70
2023-01-18T19:29:53.489Z,37.60
2023-01-18T19:32:21.089Z,35.90
2023-01-18T19:34:48.091Z,36.20
2023-01-18T19:37:15.258Z,37.40
2023-01-18T19:39:42.418Z,39.00
2023-01-18T19:42:09.549Z,37.90
2023-01-18T19:44:36.621Z,37.70
2023-01-18T19:47:03.664Z,37.60
2023-01-18T19:49:31.240Z,37.70
2023-01-18T19:51:58.771Z,37.60
2023-01-18T19:54:26.207Z,36.70
2023-01-18T19:56:53.435Z,37.30
2023-01-18T19:59:20.598Z,35.60
2023-01-18T20:01:47.758Z,36.20
2023-01-18T20:04:15.494Z,35.70
2023-01-18T20:06:45.237Z,35.20
2023-01-18T20:09:27.112Z,34.80
2023-01-18T20:11:59.253Z,34.50
2023-01-18T20:14:40.404Z,32.90
2023-01-18T20:17:08.906Z,32.90
2023-01-18T20:19:36.383Z,34.30
2023-01-18T20:22:03.994Z,33.30
2023-01-18T20:24:31.241Z,33.70
2023-01-18T20:27:15.056Z,32.50
2023-01-18T20:29:45.495Z,31.10
2023-01-18T20:32:16.803Z,32.80
2023-01-18T20:34:47.189Z,31.10
2023-01-18T20:37:15.239Z,31.30
2023-01-18T20:39:42.300Z,30.90
2023-01-18T20:42:11.794Z,30.40
2023-01-18T20:44:38.829Z,30.50
2023-01-18T20:47:06.579Z,31.30
2023-01-18T20:49:38.858Z,32.30
2023-01-18T20:52:06.864Z,31.30
2023-01-18T20:54:35.968Z,33.00
2023-01-18T20:57:03.780Z,32.10
2023-01-18T20:59:30.797Z,30.70
2023-01-18T21:01:58.634Z,31.50
2023-01-18T21:04:28.002Z,32.50
2023-01-18T21:06:57.419Z,32.30
2023-01-18T21:09:24.706Z,31.40
2023-01-18T21:11:51.890Z,31.60
2023-01-18T21:14:19.082Z,32.00
2023-01-18T21:16:46.748Z,32.30
2023-01-18T21:19:14.165Z,33.20
2023-01-18T21:21:42.001Z,33.60
2023-01-18T21:24:09.850Z,33.40
2023-01-18T21:26:37.969Z,32.30
2023-01-18T21:29:05.527Z,32.20
2023-01-18T21:31:32.971Z,31.90
2023-01-18T21:34:00.340Z,32.60
2023-01-18T21:36:27.548Z,31.50
2023-01-18T21:38:55.342Z,31.30
2023-01-18T21:41:40.722Z,30.50
2023-01-18T21:44:25.901Z,30.80
2023-01-18T21:46:54.463Z,32.30
2023-01-18T21:50:10.948Z,30.80
2023-01-18T21:52:47.220Z,32.00
2023-01-18T21:55:15.531Z,30.40
2023-01-18T21:57:42.861Z,31.20
2023-01-18T22:00:12.533Z,30.70
2023-01-18T22:02:40.244Z,30.60
2023-01-18T22:05:09.945Z,31.30
2023-01-18T22:07:37.070Z,31.80
2023-01-18T22:10:07.000Z,32.70
2023-01-18T22:12:36.176Z,32.10
2023-01-18T22:15:04.557Z,32.00
2023-01-18T22:17:31.992Z,31.60
2023-01-18T22:19:59.970Z,32.80
2023-01-18T22:22:27.248Z,32.90
2023-01-18T22:24:54.451Z,30.20
2023-01-18T22:27:21.529Z,31.80
2023-01-18T22:29:48.605Z,32.20
2023-01-18T22:32:16.466Z,30.10
2023-01-18T22:34:43.563Z,32.70
2023-01-18T22:37:11.349Z,31.10
2023-01-18T22:39:38.592Z,32.00
2023-01-18T22:42:06.145Z,32.20
2023-01-18T22:44:33.962Z,31.00
2023-01-18T22:47:01.458Z,30.90
2023-01-18T22:49:28.486Z,30.20
2023-01-18T22:51:55.653Z,29.30
2023-01-18T22:54:23.186Z,29.70
2023-01-18T22:56:50.124Z,30.10
2023-01-18T22:59:17.368Z,31.10
2023-01-18T23:01:44.634Z,30.90
2023-01-18T23:04:12.342Z,31.40
2023-01-18T23:06:48.165Z,30.30
2023-01-18T23:09:15.850Z,30.60
2023-01-18T23:11:43.301Z,30.30
2023-01-18T23:14:28.491Z,31.40
2023-01-18T23:17:13.119Z,30.10
2023-01-18T23:19:40.677Z,31.20
2023-01-18T23:22:08.068Z,31.90
2023-01-18T23:24:35.984Z,30.70
2023-01-18T23:27:03.655Z,31.70
2023-01-18T23:29:31.261Z,30.60
2023-01-18T23:31:58.718Z,31.90
2023-01-18T23:34:26.031Z,30.40
2023-01-18T23:36:53.751Z,32.20
2023-01-18T23:39:39.658Z,31.00
2023-01-18T23:42:24.538Z,30.90
2023-01-18T23:45:09.628Z,32.50
2023-01-18T23:47:55.605Z,32.00
2023-01-18T23:50:40.295Z,32.20
2023-01-18T23:53:29.120Z,31.00
2023-01-18T23:55:56.441Z,31.80
2023-01-18T23:58:24.143Z,30.80
